sensor_id;sensor_type;location;lat;lon;timestamp;P1;durP1;ratioP1;P2;durP2;ratioP2
80111;SDS011;69421;51.062;3.728;2023-04-29T00:01:59;39.47;;;19.13;;
80111;SDS011;69421;51.062;3.728;2023-04-29T00:04:25;39.97;;;20.75;;
80111;SDS011;69421;51.062;3.728;2023-04-29T00:06:50;46.97;;;20.00;;
80111;SDS011;69421;51.062;3.728;2023-04-29T00:09:16;44.58;;;21.67;;
80111;SDS011;69421;51.062;3.728;2023-04-29T00:11:41;39.08;;;19.75;;
80111;SDS011;69421;51.062;3.728;2023-04-29T00:14:07;41.22;;;18.70;;
80111;SDS011;69421;51.062;3.728;2023-04-29T00:16:32;43.13;;;19.35;;
80111;SDS011;69421;51.062;3.728;2023-04-29T00:18:58;41.72;;;20.45;;
80111;SDS011;69421;51.062;3.728;2023-04-29T00:21:24;38.42;;;20.00;;
80111;SDS011;69421;51.062;3.728;2023-04-29T00:23:51;42.72;;;20.70;;
80111;SDS011;69421;51.062;3.728;2023-04-29T00:26:17;43.75;;;20.63;;
80111;SDS011;69421;51.062;3.728;2023-04-29T00:28:42;45.38;;;21.45;;
80111;SDS011;69421;51.062;3.728;2023-04-29T00:31:08;45.15;;;23.05;;
80111;SDS011;69421;51.062;3.728;2023-04-29T00:33:33;45.00;;;22.45;;
80111;SDS011;69421;51.062;3.728;2023-04-29T00:36:01;40.92;;;20.75;;
80111;SDS011;69421;51.062;3.728;2023-04-29T00:38:27;50.83;;;22.67;;
80111;SDS011;69421;51.062;3.728;2023-04-29T00:40:53;41.78;;;20.27;;
80111;SDS011;69421;51.062;3.728;2023-04-29T00:43:19;45.55;;;21.73;;
80111;SDS011;69421;51.062;3.728;2023-04-29T00:45:45;40.10;;;19.05;;
80111;SDS011;69421;51.062;3.728;2023-04-29T00:48:11;41.67;;;22.13;;
80111;SDS011;69421;51.062;3.728;2023-04-29T00:50:39;45.55;;;23.25;;
80111;SDS011;69421;51.062;3.728;2023-04-29T00:53:05;41.72;;;20.15;;
80111;SDS011;69421;51.062;3.728;2023-04-29T00:55:31;43.90;;;21.90;;
80111;SDS011;69421;51.062;3.728;2023-04-29T00:57:59;46.28;;;22.75;;
80111;SDS011;69421;51.062;3.728;2023-04-29T01:00:27;45.22;;;21.30;;
80111;SDS011;69421;51.062;3.728;2023-04-29T01:02:52;39.40;;;22.77;;
80111;SDS011;69421;51.062;3.728;2023-04-29T01:05:22;41.58;;;21.70;;
80111;SDS011;69421;51.062;3.728;2023-04-29T01:10:38;40.80;;;21.00;;
80111;SDS011;69421;51.062;3.728;2023-04-29T01:18:26;31.88;;;20.20;;
80111;SDS011;69421;51.062;3.728;2023-04-29T01:20:54;40.60;;;18.75;;
80111;SDS011;69421;51.062;3.728;2023-04-29T01:23:24;38.00;;;18.38;;
80111;SDS011;69421;51.062;3.728;2023-04-29T01:25:53;35.53;;;21.02;;
80111;SDS011;69421;51.062;3.728;2023-04-29T01:31:01;31.55;;;19.08;;
80111;SDS011;69421;51.062;3.728;2023-04-29T01:36:15;30.35;;;19.13;;
80111;SDS011;69421;51.062;3.728;2023-04-29T01:39:07;28.95;;;16.25;;
80111;SDS011;69421;51.062;3.728;2023-04-29T01:41:42;25.67;;;15.15;;
80111;SDS011;69421;51.062;3.728;2023-04-29T01:44:12;30.65;;;16.80;;
80111;SDS011;69421;51.062;3.728;2023-04-29T01:46:45;27.83;;;17.10;;
80111;SDS011;69421;51.062;3.728;2023-04-29T01:49:14;28.05;;;16.33;;
80111;SDS011;69421;51.062;3.728;2023-04-29T01:51:40;27.73;;;16.88;;
80111;SDS011;69421;51.062;3.728;2023-04-29T01:54:05;24.03;;;15.07;;
80111;SDS011;69421;51.062;3.728;2023-04-29T01:56:31;31.37;;;16.00;;
80111;SDS011;69421;51.062;3.728;2023-04-29T01:58:56;26.35;;;17.20;;
80111;SDS011;69421;51.062;3.728;2023-04-29T02:01:21;26.27;;;16.23;;
80111;SDS011;69421;51.062;3.728;2023-04-29T02:03:47;23.77;;;15.18;;
80111;SDS011;69421;51.062;3.728;2023-04-29T02:06:12;23.90;;;14.57;;
80111;SDS011;69421;51.062;3.728;2023-04-29T02:08:38;23.15;;;14.77;;
80111;SDS011;69421;51.062;3.728;2023-04-29T02:11:03;23.17;;;13.77;;
80111;SDS011;69421;51.062;3.728;2023-04-29T02:13:29;24.00;;;15.07;;
80111;SDS011;69421;51.062;3.728;2023-04-29T02:15:54;26.23;;;14.63;;
80111;SDS011;69421;51.062;3.728;2023-04-29T02:18:19;27.23;;;16.23;;
80111;SDS011;69421;51.062;3.728;2023-04-29T02:20:45;25.00;;;15.32;;
80111;SDS011;69421;51.062;3.728;2023-04-29T02:23:10;27.60;;;17.57;;
80111;SDS011;69421;51.062;3.728;2023-04-29T02:25:36;29.53;;;17.07;;
80111;SDS011;69421;51.062;3.728;2023-04-29T02:28:01;27.25;;;16.92;;
80111;SDS011;69421;51.062;3.728;2023-04-29T02:30:27;26.52;;;15.65;;
80111;SDS011;69421;51.062;3.728;2023-04-29T02:32:52;25.17;;;14.93;;
80111;SDS011;69421;51.062;3.728;2023-04-29T02:35:18;24.25;;;16.38;;
80111;SDS011;69421;51.062;3.728;2023-04-29T02:37:44;24.88;;;15.60;;
80111;SDS011;69421;51.062;3.728;2023-04-29T02:40:09;27.33;;;15.00;;
80111;SDS011;69421;51.062;3.728;2023-04-29T02:42:35;24.65;;;14.40;;
80111;SDS011;69421;51.062;3.728;2023-04-29T02:45:00;21.90;;;13.40;;
80111;SDS011;69421;51.062;3.728;2023-04-29T02:47:27;22.10;;;13.45;;
80111;SDS011;69421;51.062;3.728;2023-04-29T02:49:52;24.70;;;13.77;;
80111;SDS011;69421;51.062;3.728;2023-04-29T02:52:17;27.80;;;14.00;;
80111;SDS011;69421;51.062;3.728;2023-04-29T02:54:43;25.37;;;12.67;;
80111;SDS011;69421;51.062;3.728;2023-04-29T02:57:08;21.38;;;13.75;;
80111;SDS011;69421;51.062;3.728;2023-04-29T02:59:34;19.10;;;13.63;;
80111;SDS011;69421;51.062;3.728;2023-04-29T03:02:00;17.83;;;12.38;;
80111;SDS011;69421;51.062;3.728;2023-04-29T03:04:26;21.95;;;13.65;;
80111;SDS011;69421;51.062;3.728;2023-04-29T03:06:53;22.85;;;14.20;;
80111;SDS011;69421;51.062;3.728;2023-04-29T03:09:20;20.15;;;13.20;;
80111;SDS011;69421;51.062;3.728;2023-04-29T03:11:46;20.10;;;13.27;;
80111;SDS011;69421;51.062;3.728;2023-04-29T03:14:11;18.58;;;14.65;;
80111;SDS011;69421;51.062;3.728;2023-04-29T03:16:36;25.77;;;13.13;;
80111;SDS011;69421;51.062;3.728;2023-04-29T03:19:02;20.23;;;12.20;;
80111;SDS011;69421;51.062;3.728;2023-04-29T03:21:28;21.05;;;12.88;;
80111;SDS011;69421;51.062;3.728;2023-04-29T03:23:53;20.77;;;12.10;;
80111;SDS011;69421;51.062;3.728;2023-04-29T03:26:20;19.73;;;12.70;;
80111;SDS011;69421;51.062;3.728;2023-04-29T03:28:48;21.65;;;13.27;;
80111;SDS011;69421;51.062;3.728;2023-04-29T03:31:13;20.58;;;13.70;;
80111;SDS011;69421;51.062;3.728;2023-04-29T03:33:40;21.63;;;12.05;;
80111;SDS011;69421;51.062;3.728;2023-04-29T03:36:06;19.33;;;11.48;;
80111;SDS011;69421;51.062;3.728;2023-04-29T03:38:32;21.33;;;14.05;;
80111;SDS011;69421;51.062;3.728;2023-04-29T03:40:58;22.20;;;12.43;;
80111;SDS011;69421;51.062;3.728;2023-04-29T03:43:23;20.20;;;12.30;;
80111;SDS011;69421;51.062;3.728;2023-04-29T03:45:49;19.85;;;12.48;;
80111;SDS011;69421;51.062;3.728;2023-04-29T03:48:15;17.63;;;11.10;;
80111;SDS011;69421;51.062;3.728;2023-04-29T03:50:40;15.20;;;12.07;;
80111;SDS011;69421;51.062;3.728;2023-04-29T03:53:06;19.63;;;11.70;;
80111;SDS011;69421;51.062;3.728;2023-04-29T03:55:32;21.90;;;13.98;;
80111;SDS011;69421;51.062;3.728;2023-04-29T03:57:57;18.38;;;11.77;;
80111;SDS011;69421;51.062;3.728;2023-04-29T04:00:23;14.27;;;9.83;;
80111;SDS011;69421;51.062;3.728;2023-04-29T04:02:50;18.08;;;11.27;;
80111;SDS011;69421;51.062;3.728;2023-04-29T04:05:16;20.38;;;10.32;;
80111;SDS011;69421;51.062;3.728;2023-04-29T04:07:43;15.90;;;11.00;;
80111;SDS011;69421;51.062;3.728;2023-04-29T04:10:09;16.00;;;10.33;;
80111;SDS011;69421;51.062;3.728;2023-04-29T04:12:34;16.20;;;10.38;;
80111;SDS011;69421;51.062;3.728;2023-04-29T04:15:00;18.37;;;10.90;;
80111;SDS011;69421;51.062;3.728;2023-04-29T04:17:25;21.02;;;12.25;;
80111;SDS011;69421;51.062;3.728;2023-04-29T04:19:51;14.75;;;10.63;;
80111;SDS011;69421;51.062;3.728;2023-04-29T04:22:17;17.60;;;10.85;;
80111;SDS011;69421;51.062;3.728;2023-04-29T04:24:42;14.82;;;9.65;;
80111;SDS011;69421;51.062;3.728;2023-04-29T04:27:08;17.48;;;11.02;;
80111;SDS011;69421;51.062;3.728;2023-04-29T04:29:34;20.98;;;11.25;;
80111;SDS011;69421;51.062;3.728;2023-04-29T04:31:59;19.07;;;11.40;;
80111;SDS011;69421;51.062;3.728;2023-04-29T04:34:26;18.40;;;12.13;;
80111;SDS011;69421;51.062;3.728;2023-04-29T04:36:52;17.17;;;10.75;;
80111;SDS011;69421;51.062;3.728;2023-04-29T04:39:17;21.83;;;11.43;;
80111;SDS011;69421;51.062;3.728;2023-04-29T04:41:42;17.50;;;10.85;;
80111;SDS011;69421;51.062;3.728;2023-04-29T04:44:08;17.27;;;11.82;;
80111;SDS011;69421;51.062;3.728;2023-04-29T04:46:34;19.17;;;11.32;;
80111;SDS011;69421;51.062;3.728;2023-04-29T04:49:00;20.27;;;11.18;;
80111;SDS011;69421;51.062;3.728;2023-04-29T04:51:26;18.85;;;12.95;;
80111;SDS011;69421;51.062;3.728;2023-04-29T04:53:53;20.45;;;12.85;;
80111;SDS011;69421;51.062;3.728;2023-04-29T04:56:18;20.45;;;13.15;;
80111;SDS011;69421;51.062;3.728;2023-04-29T04:58:44;24.42;;;14.02;;
80111;SDS011;69421;51.062;3.728;2023-04-29T05:01:09;20.02;;;13.07;;
80111;SDS011;69421;51.062;3.728;2023-04-29T05:03:35;22.90;;;14.23;;
80111;SDS011;69421;51.062;3.728;2023-04-29T05:06:00;18.60;;;13.23;;
80111;SDS011;69421;51.062;3.728;2023-04-29T05:08:26;22.77;;;15.23;;
80111;SDS011;69421;51.062;3.728;2023-04-29T05:10:51;22.95;;;13.45;;
80111;SDS011;69421;51.062;3.728;2023-04-29T05:13:17;28.15;;;14.05;;
80111;SDS011;69421;51.062;3.728;2023-04-29T05:15:43;25.83;;;16.98;;
80111;SDS011;69421;51.062;3.728;2023-04-29T05:18:09;24.55;;;14.95;;
80111;SDS011;69421;51.062;3.728;2023-04-29T05:20:35;25.00;;;15.88;;
80111;SDS011;69421;51.062;3.728;2023-04-29T05:23:01;21.33;;;14.48;;
80111;SDS011;69421;51.062;3.728;2023-04-29T05:25:27;28.65;;;16.80;;
80111;SDS011;69421;51.062;3.728;2023-04-29T05:27:52;23.95;;;15.05;;
80111;SDS011;69421;51.062;3.728;2023-04-29T05:30:18;26.20;;;18.20;;
80111;SDS011;69421;51.062;3.728;2023-04-29T05:32:44;24.63;;;16.25;;
80111;SDS011;69421;51.062;3.728;2023-04-29T05:35:10;23.55;;;16.33;;
80111;SDS011;69421;51.062;3.728;2023-04-29T05:37:36;25.33;;;16.52;;
80111;SDS011;69421;51.062;3.728;2023-04-29T05:40:01;25.60;;;16.65;;
80111;SDS011;69421;51.062;3.728;2023-04-29T05:42:27;29.05;;;17.20;;
80111;SDS011;69421;51.062;3.728;2023-04-29T05:44:52;28.50;;;17.58;;
80111;SDS011;69421;51.062;3.728;2023-04-29T05:47:18;25.63;;;15.53;;
80111;SDS011;69421;51.062;3.728;2023-04-29T05:49:43;22.40;;;15.67;;
80111;SDS011;69421;51.062;3.728;2023-04-29T05:52:09;26.50;;;14.93;;
80111;SDS011;69421;51.062;3.728;2023-04-29T05:54:34;27.88;;;16.80;;
80111;SDS011;69421;51.062;3.728;2023-04-29T05:57:00;26.40;;;15.60;;
80111;SDS011;69421;51.062;3.728;2023-04-29T05:59:29;23.98;;;15.45;;
80111;SDS011;69421;51.062;3.728;2023-04-29T06:04:21;26.70;;;16.25;;
80111;SDS011;69421;51.062;3.728;2023-04-29T06:06:46;29.43;;;16.60;;
80111;SDS011;69421;51.062;3.728;2023-04-29T06:09:12;28.15;;;16.50;;
80111;SDS011;69421;51.062;3.728;2023-04-29T06:11:39;25.35;;;16.25;;
80111;SDS011;69421;51.062;3.728;2023-04-29T06:14:05;23.08;;;16.33;;
80111;SDS011;69421;51.062;3.728;2023-04-29T06:16:30;26.50;;;16.95;;
80111;SDS011;69421;51.062;3.728;2023-04-29T06:18:56;28.80;;;16.42;;
80111;SDS011;69421;51.062;3.728;2023-04-29T06:21:22;28.27;;;16.92;;
80111;SDS011;69421;51.062;3.728;2023-04-29T06:23:47;24.50;;;17.00;;
80111;SDS011;69421;51.062;3.728;2023-04-29T06:26:14;25.98;;;15.85;;
80111;SDS011;69421;51.062;3.728;2023-04-29T06:28:40;31.10;;;18.27;;
80111;SDS011;69421;51.062;3.728;2023-04-29T06:31:05;28.17;;;17.30;;
80111;SDS011;69421;51.062;3.728;2023-04-29T06:33:31;28.05;;;17.45;;
80111;SDS011;69421;51.062;3.728;2023-04-29T06:35:58;28.83;;;16.88;;
80111;SDS011;69421;51.062;3.728;2023-04-29T06:38:24;23.98;;;15.93;;
80111;SDS011;69421;51.062;3.728;2023-04-29T06:40:50;27.42;;;15.30;;
80111;SDS011;69421;51.062;3.728;2023-04-29T06:43:18;25.60;;;15.43;;
80111;SDS011;69421;51.062;3.728;2023-04-29T06:45:46;26.77;;;16.90;;
80111;SDS011;69421;51.062;3.728;2023-04-29T06:48:12;24.58;;;15.68;;
80111;SDS011;69421;51.062;3.728;2023-04-29T06:50:38;20.40;;;14.45;;
80111;SDS011;69421;51.062;3.728;2023-04-29T06:53:16;21.40;;;13.73;;
80111;SDS011;69421;51.062;3.728;2023-04-29T06:55:42;21.77;;;14.43;;
80111;SDS011;69421;51.062;3.728;2023-04-29T06:58:08;20.92;;;14.60;;
80111;SDS011;69421;51.062;3.728;2023-04-29T07:00:34;25.40;;;14.93;;
80111;SDS011;69421;51.062;3.728;2023-04-29T07:03:01;22.05;;;15.32;;
80111;SDS011;69421;51.062;3.728;2023-04-29T07:05:27;21.80;;;13.27;;
80111;SDS011;69421;51.062;3.728;2023-04-29T07:07:59;22.52;;;15.30;;
80111;SDS011;69421;51.062;3.728;2023-04-29T07:10:27;21.58;;;14.30;;
80111;SDS011;69421;51.062;3.728;2023-04-29T07:15:21;22.38;;;15.23;;
80111;SDS011;69421;51.062;3.728;2023-04-29T07:17:47;21.27;;;14.80;;
80111;SDS011;69421;51.062;3.728;2023-04-29T07:20:12;23.92;;;14.20;;
80111;SDS011;69421;51.062;3.728;2023-04-29T07:22:45;22.40;;;13.40;;
80111;SDS011;69421;51.062;3.728;2023-04-29T07:25:11;19.48;;;13.80;;
80111;SDS011;69421;51.062;3.728;2023-04-29T07:27:39;21.27;;;13.75;;
80111;SDS011;69421;51.062;3.728;2023-04-29T07:30:10;19.38;;;12.32;;
80111;SDS011;69421;51.062;3.728;2023-04-29T07:32:35;22.40;;;12.43;;
80111;SDS011;69421;51.062;3.728;2023-04-29T07:35:02;19.00;;;13.80;;
80111;SDS011;69421;51.062;3.728;2023-04-29T07:37:32;21.23;;;14.02;;
80111;SDS011;69421;51.062;3.728;2023-04-29T07:40:01;20.00;;;13.15;;
80111;SDS011;69421;51.062;3.728;2023-04-29T07:42:30;21.05;;;14.25;;
80111;SDS011;69421;51.062;3.728;2023-04-29T07:44:56;21.67;;;13.93;;
80111;SDS011;69421;51.062;3.728;2023-04-29T07:47:21;18.95;;;13.38;;
80111;SDS011;69421;51.062;3.728;2023-04-29T07:49:47;22.23;;;11.80;;
80111;SDS011;69421;51.062;3.728;2023-04-29T07:52:23;18.35;;;13.25;;
80111;SDS011;69421;51.062;3.728;2023-04-29T07:55:06;18.05;;;13.70;;
80111;SDS011;69421;51.062;3.728;2023-04-29T07:57:32;18.45;;;12.70;;
80111;SDS011;69421;51.062;3.728;2023-04-29T08:00:00;18.73;;;11.38;;
80111;SDS011;69421;51.062;3.728;2023-04-29T08:02:25;18.88;;;12.88;;
80111;SDS011;69421;51.062;3.728;2023-04-29T08:05:08;21.45;;;13.15;;
80111;SDS011;69421;51.062;3.728;2023-04-29T08:07:34;22.27;;;12.07;;
80111;SDS011;69421;51.062;3.728;2023-04-29T08:10:01;18.20;;;11.95;;
80111;SDS011;69421;51.062;3.728;2023-04-29T08:12:28;20.90;;;14.48;;
80111;SDS011;69421;51.062;3.728;2023-04-29T08:14:56;19.05;;;13.68;;
80111;SDS011;69421;51.062;3.728;2023-04-29T08:17:25;19.60;;;11.80;;
80111;SDS011;69421;51.062;3.728;2023-04-29T08:19:53;15.60;;;11.57;;
80111;SDS011;69421;51.062;3.728;2023-04-29T08:22:22;17.33;;;11.10;;
80111;SDS011;69421;51.062;3.728;2023-04-29T08:24:47;19.73;;;12.30;;
80111;SDS011;69421;51.062;3.728;2023-04-29T08:27:16;16.63;;;11.18;;
80111;SDS011;69421;51.062;3.728;2023-04-29T08:29:45;15.70;;;11.23;;
80111;SDS011;69421;51.062;3.728;2023-04-29T08:32:11;14.93;;;11.52;;
80111;SDS011;69421;51.062;3.728;2023-04-29T08:34:36;18.83;;;12.02;;
80111;SDS011;69421;51.062;3.728;2023-04-29T08:39:31;18.13;;;12.97;;
80111;SDS011;69421;51.062;3.728;2023-04-29T08:41:57;16.58;;;12.30;;
80111;SDS011;69421;51.062;3.728;2023-04-29T08:44:25;21.05;;;13.20;;
80111;SDS011;69421;51.062;3.728;2023-04-29T08:46:51;20.95;;;12.52;;
80111;SDS011;69421;51.062;3.728;2023-04-29T08:49:17;20.30;;;13.40;;
80111;SDS011;69421;51.062;3.728;2023-04-29T08:51:43;20.40;;;13.43;;
80111;SDS011;69421;51.062;3.728;2023-04-29T08:54:17;20.35;;;12.45;;
80111;SDS011;69421;51.062;3.728;2023-04-29T08:56:46;18.80;;;12.23;;
80111;SDS011;69421;51.062;3.728;2023-04-29T08:59:15;19.95;;;13.25;;
80111;SDS011;69421;51.062;3.728;2023-04-29T09:01:44;19.17;;;12.40;;
80111;SDS011;69421;51.062;3.728;2023-04-29T09:04:20;18.25;;;12.23;;
80111;SDS011;69421;51.062;3.728;2023-04-29T09:07:10;19.98;;;14.55;;
80111;SDS011;69421;51.062;3.728;2023-04-29T09:09:37;21.50;;;12.02;;
80111;SDS011;69421;51.062;3.728;2023-04-29T09:12:03;19.55;;;12.68;;
80111;SDS011;69421;51.062;3.728;2023-04-29T09:14:29;20.30;;;11.93;;
80111;SDS011;69421;51.062;3.728;2023-04-29T09:16:58;19.23;;;13.73;;
80111;SDS011;69421;51.062;3.728;2023-04-29T09:19:33;17.45;;;12.07;;
80111;SDS011;69421;51.062;3.728;2023-04-29T09:22:02;20.15;;;12.20;;
80111;SDS011;69421;51.062;3.728;2023-04-29T09:24:37;21.30;;;12.00;;
80111;SDS011;69421;51.062;3.728;2023-04-29T09:27:04;20.80;;;13.05;;
80111;SDS011;69421;51.062;3.728;2023-04-29T09:29:39;17.95;;;12.70;;
80111;SDS011;69421;51.062;3.728;2023-04-29T09:32:32;21.30;;;13.77;;
80111;SDS011;69421;51.062;3.728;2023-04-29T09:38:06;21.58;;;13.10;;
80111;SDS011;69421;51.062;3.728;2023-04-29T09:40:33;19.55;;;12.40;;
80111;SDS011;69421;51.062;3.728;2023-04-29T09:42:59;20.80;;;13.75;;
80111;SDS011;69421;51.062;3.728;2023-04-29T09:45:31;21.55;;;13.60;;
80111;SDS011;69421;51.062;3.728;2023-04-29T09:48:00;18.35;;;11.52;;
80111;SDS011;69421;51.062;3.728;2023-04-29T09:50:30;18.05;;;11.80;;
80111;SDS011;69421;51.062;3.728;2023-04-29T09:52:56;20.85;;;12.65;;
80111;SDS011;69421;51.062;3.728;2023-04-29T09:55:22;20.70;;;11.48;;
80111;SDS011;69421;51.062;3.728;2023-04-29T09:57:53;25.90;;;15.05;;
80111;SDS011;69421;51.062;3.728;2023-04-29T10:00:25;28.75;;;16.25;;
80111;SDS011;69421;51.062;3.728;2023-04-29T10:02:55;25.65;;;16.60;;
80111;SDS011;69421;51.062;3.728;2023-04-29T10:05:31;21.20;;;12.07;;
80111;SDS011;69421;51.062;3.728;2023-04-29T10:07:59;23.55;;;13.27;;
80111;SDS011;69421;51.062;3.728;2023-04-29T10:10:25;22.20;;;13.65;;
80111;SDS011;69421;51.062;3.728;2023-04-29T10:12:55;17.38;;;11.30;;
80111;SDS011;69421;51.062;3.728;2023-04-29T10:15:43;16.50;;;10.38;;
80111;SDS011;69421;51.062;3.728;2023-04-29T10:18:19;15.50;;;10.02;;
80111;SDS011;69421;51.062;3.728;2023-04-29T10:20:48;20.50;;;10.93;;
80111;SDS011;69421;51.062;3.728;2023-04-29T10:25:45;22.83;;;11.65;;
80111;SDS011;69421;51.062;3.728;2023-04-29T10:28:17;16.65;;;10.55;;
80111;SDS011;69421;51.062;3.728;2023-04-29T10:30:49;15.85;;;10.55;;
80111;SDS011;69421;51.062;3.728;2023-04-29T10:33:16;13.95;;;9.05;;
80111;SDS011;69421;51.062;3.728;2023-04-29T10:35:45;14.35;;;9.02;;
80111;SDS011;69421;51.062;3.728;2023-04-29T10:38:14;17.50;;;10.38;;
80111;SDS011;69421;51.062;3.728;2023-04-29T10:40:53;17.65;;;10.88;;
80111;SDS011;69421;51.062;3.728;2023-04-29T10:43:24;16.23;;;10.73;;
80111;SDS011;69421;51.062;3.728;2023-04-29T10:48:42;15.63;;;10.63;;
80111;SDS011;69421;51.062;3.728;2023-04-29T10:51:11;15.30;;;10.00;;
80111;SDS011;69421;51.062;3.728;2023-04-29T10:54:02;16.60;;;10.48;;
80111;SDS011;69421;51.062;3.728;2023-04-29T10:56:34;17.67;;;10.65;;
80111;SDS011;69421;51.062;3.728;2023-04-29T10:59:02;17.50;;;12.45;;
80111;SDS011;69421;51.062;3.728;2023-04-29T11:04:11;21.10;;;11.43;;
80111;SDS011;69421;51.062;3.728;2023-04-29T11:06:38;19.80;;;12.00;;
80111;SDS011;69421;51.062;3.728;2023-04-29T11:09:18;19.08;;;11.55;;
80111;SDS011;69421;51.062;3.728;2023-04-29T11:14:35;20.55;;;12.23;;
80111;SDS011;69421;51.062;3.728;2023-04-29T11:17:07;16.25;;;10.57;;
80111;SDS011;69421;51.062;3.728;2023-04-29T11:19:46;15.20;;;9.75;;
80111;SDS011;69421;51.062;3.728;2023-04-29T11:24:52;17.30;;;10.77;;
80111;SDS011;69421;51.062;3.728;2023-04-29T11:27:19;18.55;;;10.75;;
80111;SDS011;69421;51.062;3.728;2023-04-29T11:29:49;21.55;;;11.27;;
80111;SDS011;69421;51.062;3.728;2023-04-29T11:32:15;18.10;;;10.45;;
80111;SDS011;69421;51.062;3.728;2023-04-29T11:34:45;14.00;;;9.35;;
80111;SDS011;69421;51.062;3.728;2023-04-29T11:37:10;11.68;;;8.48;;
80111;SDS011;69421;51.062;3.728;2023-04-29T11:39:38;10.90;;;7.55;;
80111;SDS011;69421;51.062;3.728;2023-04-29T11:42:06;10.77;;;7.60;;
80111;SDS011;69421;51.062;3.728;2023-04-29T11:44:35;11.52;;;7.15;;
80111;SDS011;69421;51.062;3.728;2023-04-29T11:47:02;12.32;;;8.20;;
80111;SDS011;69421;51.062;3.728;2023-04-29T11:49:31;9.52;;;7.53;;
80111;SDS011;69421;51.062;3.728;2023-04-29T11:51:57;12.43;;;8.40;;
80111;SDS011;69421;51.062;3.728;2023-04-29T11:54:27;9.77;;;7.90;;
80111;SDS011;69421;51.062;3.728;2023-04-29T11:56:53;10.57;;;7.53;;
80111;SDS011;69421;51.062;3.728;2023-04-29T11:59:22;10.20;;;8.48;;
80111;SDS011;69421;51.062;3.728;2023-04-29T12:01:50;12.43;;;8.38;;
80111;SDS011;69421;51.062;3.728;2023-04-29T12:04:16;12.85;;;8.20;;
80111;SDS011;69421;51.062;3.728;2023-04-29T12:06:42;14.30;;;8.55;;
80111;SDS011;69421;51.062;3.728;2023-04-29T12:09:08;10.85;;;8.32;;
80111;SDS011;69421;51.062;3.728;2023-04-29T12:11:33;9.68;;;7.28;;
80111;SDS011;69421;51.062;3.728;2023-04-29T12:14:00;10.25;;;7.22;;
80111;SDS011;69421;51.062;3.728;2023-04-29T12:16:28;11.40;;;7.13;;
80111;SDS011;69421;51.062;3.728;2023-04-29T12:18:54;11.85;;;7.20;;
80111;SDS011;69421;51.062;3.728;2023-04-29T12:21:20;12.32;;;8.18;;
80111;SDS011;69421;51.062;3.728;2023-04-29T12:23:49;10.15;;;6.50;;
80111;SDS011;69421;51.062;3.728;2023-04-29T12:26:15;8.88;;;6.38;;
80111;SDS011;69421;51.062;3.728;2023-04-29T12:28:41;8.93;;;6.43;;
80111;SDS011;69421;51.062;3.728;2023-04-29T12:31:08;12.18;;;7.75;;
80111;SDS011;69421;51.062;3.728;2023-04-29T12:33:34;10.68;;;6.65;;
80111;SDS011;69421;51.062;3.728;2023-04-29T12:36:00;9.48;;;6.45;;
80111;SDS011;69421;51.062;3.728;2023-04-29T12:38:26;7.90;;;6.47;;
80111;SDS011;69421;51.062;3.728;2023-04-29T12:40:54;10.20;;;7.40;;
80111;SDS011;69421;51.062;3.728;2023-04-29T12:43:29;11.05;;;8.48;;
80111;SDS011;69421;51.062;3.728;2023-04-29T12:46:02;10.73;;;8.38;;
80111;SDS011;69421;51.062;3.728;2023-04-29T12:48:29;9.85;;;7.68;;
80111;SDS011;69421;51.062;3.728;2023-04-29T12:50:57;10.18;;;7.25;;
80111;SDS011;69421;51.062;3.728;2023-04-29T12:53:26;11.77;;;8.07;;
80111;SDS011;69421;51.062;3.728;2023-04-29T12:55:53;11.02;;;7.63;;
80111;SDS011;69421;51.062;3.728;2023-04-29T12:58:18;8.75;;;7.07;;
80111;SDS011;69421;51.062;3.728;2023-04-29T13:00:44;9.75;;;7.32;;
80111;SDS011;69421;51.062;3.728;2023-04-29T13:03:10;7.40;;;5.72;;
80111;SDS011;69421;51.062;3.728;2023-04-29T13:05:35;9.70;;;6.60;;
80111;SDS011;69421;51.062;3.728;2023-04-29T13:08:01;7.88;;;7.07;;
80111;SDS011;69421;51.062;3.728;2023-04-29T13:10:27;8.48;;;6.13;;
80111;SDS011;69421;51.062;3.728;2023-04-29T13:12:53;9.25;;;7.60;;
80111;SDS011;69421;51.062;3.728;2023-04-29T13:15:18;9.15;;;6.63;;
80111;SDS011;69421;51.062;3.728;2023-04-29T13:17:45;10.73;;;7.80;;
80111;SDS011;69421;51.062;3.728;2023-04-29T13:20:11;11.43;;;7.60;;
80111;SDS011;69421;51.062;3.728;2023-04-29T13:22:37;9.35;;;7.47;;
80111;SDS011;69421;51.062;3.728;2023-04-29T13:25:09;11.43;;;7.93;;
80111;SDS011;69421;51.062;3.728;2023-04-29T13:27:36;14.85;;;8.55;;
80111;SDS011;69421;51.062;3.728;2023-04-29T13:30:02;10.98;;;9.73;;
80111;SDS011;69421;51.062;3.728;2023-04-29T13:32:31;12.02;;;7.88;;
80111;SDS011;69421;51.062;3.728;2023-04-29T13:34:56;10.90;;;8.67;;
80111;SDS011;69421;51.062;3.728;2023-04-29T13:37:22;10.25;;;7.65;;
80111;SDS011;69421;51.062;3.728;2023-04-29T13:39:48;10.82;;;8.52;;
80111;SDS011;69421;51.062;3.728;2023-04-29T13:42:13;13.50;;;8.87;;
80111;SDS011;69421;51.062;3.728;2023-04-29T13:44:39;16.88;;;11.73;;
80111;SDS011;69421;51.062;3.728;2023-04-29T13:47:08;16.00;;;11.07;;
80111;SDS011;69421;51.062;3.728;2023-04-29T13:49:35;13.43;;;10.75;;
80111;SDS011;69421;51.062;3.728;2023-04-29T13:52:00;12.53;;;11.23;;
80111;SDS011;69421;51.062;3.728;2023-04-29T13:54:26;14.50;;;11.45;;
80111;SDS011;69421;51.062;3.728;2023-04-29T13:56:51;15.05;;;11.73;;
80111;SDS011;69421;51.062;3.728;2023-04-29T13:59:17;22.97;;;16.13;;
80111;SDS011;69421;51.062;3.728;2023-04-29T14:01:42;23.73;;;17.50;;
80111;SDS011;69421;51.062;3.728;2023-04-29T14:04:08;22.17;;;15.88;;
80111;SDS011;69421;51.062;3.728;2023-04-29T14:06:34;19.77;;;14.35;;
80111;SDS011;69421;51.062;3.728;2023-04-29T14:09:00;17.67;;;13.63;;
80111;SDS011;69421;51.062;3.728;2023-04-29T14:11:25;18.75;;;15.20;;
80111;SDS011;69421;51.062;3.728;2023-04-29T14:13:51;15.75;;;12.52;;
80111;SDS011;69421;51.062;3.728;2023-04-29T14:16:17;16.25;;;11.68;;
80111;SDS011;69421;51.062;3.728;2023-04-29T14:18:42;16.25;;;11.63;;
80111;SDS011;69421;51.062;3.728;2023-04-29T14:21:08;15.83;;;11.80;;
80111;SDS011;69421;51.062;3.728;2023-04-29T14:23:35;17.30;;;11.85;;
80111;SDS011;69421;51.062;3.728;2023-04-29T14:26:00;17.50;;;13.30;;
80111;SDS011;69421;51.062;3.728;2023-04-29T14:28:25;15.10;;;12.40;;
80111;SDS011;69421;51.062;3.728;2023-04-29T14:30:51;17.77;;;11.70;;
80111;SDS011;69421;51.062;3.728;2023-04-29T14:33:16;16.85;;;13.25;;
80111;SDS011;69421;51.062;3.728;2023-04-29T14:35:42;16.98;;;13.93;;
80111;SDS011;69421;51.062;3.728;2023-04-29T14:38:08;13.90;;;11.85;;
80111;SDS011;69421;51.062;3.728;2023-04-29T14:40:33;15.00;;;12.73;;
80111;SDS011;69421;51.062;3.728;2023-04-29T14:42:59;17.33;;;12.65;;
80111;SDS011;69421;51.062;3.728;2023-04-29T14:45:29;16.52;;;12.70;;
80111;SDS011;69421;51.062;3.728;2023-04-29T14:47:54;15.27;;;11.85;;
80111;SDS011;69421;51.062;3.728;2023-04-29T14:50:20;14.85;;;13.30;;
80111;SDS011;69421;51.062;3.728;2023-04-29T14:52:47;16.55;;;12.10;;
80111;SDS011;69421;51.062;3.728;2023-04-29T14:55:13;16.15;;;12.27;;
80111;SDS011;69421;51.062;3.728;2023-04-29T14:57:39;19.00;;;13.32;;
80111;SDS011;69421;51.062;3.728;2023-04-29T15:00:04;16.35;;;13.13;;
80111;SDS011;69421;51.062;3.728;2023-04-29T15:02:32;16.88;;;12.90;;